createdAt,value
2022-10-29T00:00:38.144Z,13.30
2022-10-29T00:06:12.486Z,13.82
2022-10-29T00:11:34.263Z,14.27
2022-10-29T00:16:57.007Z,16.67
2022-10-29T00:22:17.766Z,16.02
2022-10-29T00:27:38.581Z,14.55
2022-10-29T00:32:59.196Z,14.38
2022-10-29T00:38:19.797Z,12.23
2022-10-29T00:43:52.227Z,13.80
2022-10-29T00:49:13.307Z,14.45
2022-10-29T00:54:38.818Z,14.50
2022-10-29T00:59:59.656Z,16.17
2022-10-29T01:05:28.993Z,12.32
2022-10-29T01:11:20.031Z,14.95
2022-10-29T01:17:03.975Z,12.85
2022-10-29T01:22:45.239Z,11.02
2022-10-29T01:28:36.940Z,16.58
2022-10-29T01:34:18.934Z,14.20
2022-10-29T01:40:01.347Z,13.48
2022-10-29T01:45:25.559Z,13.98
2022-10-29T01:50:51.915Z,12.80
2022-10-29T01:56:12.754Z,16.08
2022-10-29T02:01:39.776Z,22.42
2022-10-29T02:07:33.020Z,18.65
2022-10-29T02:12:56.011Z,15.23
2022-10-29T02:18:17.797Z,18.20
2022-10-29T02:23:38.560Z,17.23
2022-10-29T02:28:59.407Z,13.30
2022-10-29T02:34:19.977Z,12.55
2022-10-29T02:39:40.713Z,9.25
2022-10-29T02:45:01.566Z,8.10
2022-10-29T02:50:22.163Z,7.22
2022-10-29T02:55:42.876Z,7.75
2022-10-29T03:01:04.327Z,13.23
2022-10-29T03:06:25.425Z,10.50
2022-10-29T03:11:46.001Z,10.43
2022-10-29T03:17:06.744Z,14.27
2022-10-29T03:22:27.412Z,9.35
2022-10-29T03:27:48.401Z,11.75
2022-10-29T03:33:09.224Z,10.63
2022-10-29T03:38:30.091Z,7.38
2022-10-29T03:43:51.117Z,7.78
2022-10-29T03:49:11.893Z,8.00
2022-10-29T03:54:32.658Z,10.30
2022-10-29T03:59:54.439Z,11.00
2022-10-29T04:05:15.105Z,7.43
2022-10-29T04:10:35.648Z,9.43
2022-10-29T04:15:56.937Z,8.80
2022-10-29T04:32:39.488Z,9.32
2022-10-29T04:38:00.048Z,11.30
2022-10-29T04:43:20.757Z,9.68
2022-10-29T04:48:41.422Z,10.13
2022-10-29T04:54:01.986Z,7.05
2022-10-29T04:59:22.555Z,8.98
2022-10-29T05:04:43.225Z,9.48
2022-10-29T05:10:04.131Z,9.82
2022-10-29T05:15:25.252Z,11.93
2022-10-29T05:20:46.353Z,14.82
2022-10-29T05:26:06.828Z,15.23
2022-10-29T05:31:27.669Z,10.27
2022-10-29T05:36:48.332Z,7.18
2022-10-29T05:42:08.890Z,7.80
2022-10-29T05:47:29.402Z,12.70
2022-10-29T05:53:16.299Z,8.77
2022-10-29T05:58:36.976Z,4.93
2022-10-29T06:03:58.139Z,7.53
2022-10-29T06:09:19.026Z,5.40
2022-10-29T06:14:39.626Z,4.35
2022-10-29T06:20:00.325Z,6.28
2022-10-29T06:25:20.879Z,6.57
2022-10-29T06:30:45.735Z,4.45
2022-10-29T06:36:07.082Z,8.30
2022-10-29T06:41:28.794Z,5.72
2022-10-29T06:46:51.189Z,7.50
2022-10-29T06:52:11.707Z,8.70
2022-10-29T06:57:32.415Z,21.40
2022-10-29T07:02:53.297Z,39.88
2022-10-29T07:08:14.224Z,43.75
2022-10-29T07:13:35.797Z,22.67
2022-10-29T07:18:56.666Z,22.55
2022-10-29T07:24:20.052Z,20.33
2022-10-29T07:29:41.003Z,14.60
2022-10-29T07:35:01.662Z,16.40
2022-10-29T07:40:22.263Z,22.67
2022-10-29T07:45:45.273Z,17.95
2022-10-29T07:51:06.093Z,11.82
2022-10-29T07:56:27.807Z,7.30
2022-10-29T08:01:48.833Z,6.13
2022-10-29T08:07:09.913Z,7.80
2022-10-29T08:12:30.615Z,5.68
2022-10-29T08:17:51.604Z,7.78
2022-10-29T08:23:13.569Z,3.70
2022-10-29T08:28:35.802Z,5.68
2022-10-29T08:33:56.721Z,5.72
2022-10-29T08:39:17.261Z,5.78
2022-10-29T08:44:53.772Z,4.28
2022-10-29T08:50:29.857Z,4.47
2022-10-29T08:55:50.687Z,5.50
2022-10-29T09:01:12.511Z,7.13
2022-10-29T09:06:49.205Z,7.13
2022-10-29T09:12:33.027Z,6.85
2022-10-29T09:18:10.102Z,5.85
2022-10-29T09:24:00.335Z,5.20
2022-10-29T09:29:33.139Z,3.60
2022-10-29T09:35:00.505Z,5.55
2022-10-29T09:40:37.784Z,9.30
2022-10-29T09:46:10.474Z,6.50
2022-10-29T09:51:53.603Z,4.10
2022-10-29T09:57:24.110Z,3.15
2022-10-29T10:02:54.810Z,4.47
2022-10-29T10:08:15.759Z,6.35
2022-10-29T10:13:50.017Z,4.38
2022-10-29T10:19:25.689Z,4.50
2022-10-29T10:24:47.219Z,5.72
2022-10-29T10:30:16.018Z,4.30
2022-10-29T10:35:37.698Z,9.17
2022-10-29T10:41:05.091Z,5.97
2022-10-29T10:46:30.801Z,7.70
2022-10-29T10:51:54.383Z,7.32
2022-10-29T10:57:17.124Z,5.30
2022-10-29T11:02:54.983Z,5.38
2022-10-29T11:08:23.590Z,8.00
2022-10-29T11:13:44.441Z,8.20
2022-10-29T11:19:34.202Z,5.45
2022-10-29T11:24:59.616Z,4.32
2022-10-29T11:30:20.653Z,5.65
2022-10-29T11:36:01.440Z,6.72
2022-10-29T11:41:48.331Z,7.57
2022-10-29T11:47:30.165Z,7.70
2022-10-29T11:52:54.176Z,4.40
2022-10-29T11:58:34.319Z,6.68
2022-10-29T12:04:24.387Z,4.30
2022-10-29T12:10:06.804Z,7.60
2022-10-29T12:15:37.127Z,9.77
2022-10-29T12:21:08.260Z,6.10
2022-10-29T12:26:46.263Z,3.55
2022-10-29T12:32:33.508Z,7.60
2022-10-29T12:38:32.067Z,7.85
2022-10-29T12:44:04.126Z,6.60
2022-10-29T12:49:45.742Z,7.43
2022-10-29T12:55:10.494Z,8.68
2022-10-29T13:00:49.650Z,10.50
2022-10-29T13:06:44.337Z,5.22
2022-10-29T13:12:10.014Z,5.25
2022-10-29T13:17:40.208Z,8.80
2022-10-29T13:23:04.013Z,5.82
2022-10-29T13:28:28.021Z,5.15
2022-10-29T13:33:49.966Z,10.90
2022-10-29T13:39:19.580Z,6.10
2022-10-29T13:44:40.627Z,8.02
2022-10-29T13:50:01.498Z,13.32
2022-10-29T13:55:23.092Z,6.43
2022-10-29T14:00:46.343Z,12.45
2022-10-29T14:06:20.740Z,7.30
2022-10-29T14:11:52.584Z,8.80
2022-10-29T14:17:16.180Z,8.13
2022-10-29T14:22:41.097Z,7.40
2022-10-29T14:28:31.699Z,9.45
2022-10-29T14:33:57.702Z,5.47
2022-10-29T14:39:32.791Z,10.20
2022-10-29T14:45:00.867Z,5.50
2022-10-29T14:50:24.180Z,6.70
2022-10-29T14:55:50.106Z,12.35
2022-10-29T15:01:20.441Z,8.40
2022-10-29T15:06:41.292Z,9.65
2022-10-29T15:12:07.528Z,8.30
2022-10-29T15:17:31.838Z,7.95
2022-10-29T15:22:55.775Z,10.15
2022-10-29T15:28:24.594Z,10.25
2022-10-29T15:33:45.537Z,10.00
2022-10-29T15:39:20.243Z,8.43
2022-10-29T15:44:41.218Z,8.20
2022-10-29T15:50:02.541Z,12.15
2022-10-29T15:55:29.601Z,21.52
2022-10-29T16:00:51.679Z,15.82
2022-10-29T16:06:12.911Z,21.77
2022-10-29T16:11:35.091Z,20.08
2022-10-29T16:16:55.678Z,15.65
2022-10-29T16:22:30.111Z,18.48
2022-10-29T16:27:51.124Z,17.42
2022-10-29T16:33:12.324Z,19.42
2022-10-29T16:38:33.296Z,18.10
2022-10-29T16:43:54.115Z,18.90
2022-10-29T16:49:14.708Z,15.55
2022-10-29T16:54:35.253Z,9.55
2022-10-29T16:59:55.962Z,12.73
2022-10-29T17:05:17.091Z,15.00
2022-10-29T17:10:37.884Z,11.43
2022-10-29T17:15:58.540Z,9.70
2022-10-29T17:21:19.309Z,12.23
2022-10-29T17:26:40.108Z,11.73
2022-10-29T17:32:01.311Z,18.13
2022-10-29T17:37:22.126Z,9.88
2022-10-29T17:42:42.940Z,13.85
2022-10-29T17:48:03.817Z,10.02
2022-10-29T17:53:26.062Z,9.32
2022-10-29T17:58:47.252Z,14.88
2022-10-29T18:04:07.878Z,13.15
2022-10-29T18:09:28.643Z,10.88
2022-10-29T18:14:49.211Z,11.13
2022-10-29T18:20:10.515Z,13.27
2022-10-29T18:25:31.373Z,12.48
2022-10-29T18:30:52.040Z,11.98
2022-10-29T18:36:12.908Z,10.52
2022-10-29T18:41:34.574Z,10.15
2022-10-29T18:46:55.253Z,13.13
2022-10-29T18:52:16.166Z,9.45
2022-10-29T18:57:36.804Z,8.77
2022-10-29T19:02:57.741Z,11.38
2022-10-29T19:08:18.657Z,19.65
2022-10-29T19:13:40.135Z,10.40
2022-10-29T19:24:29.660Z,11.98
2022-10-29T19:29:50.709Z,11.85
2022-10-29T19:35:11.620Z,12.75
2022-10-29T19:40:32.142Z,17.42
2022-10-29T19:45:53.313Z,16.00
2022-10-29T19:51:13.930Z,17.75
2022-10-29T19:56:34.667Z,17.73
2022-10-29T20:01:55.394Z,16.25
2022-10-29T20:07:15.710Z,13.68
2022-10-29T20:12:36.300Z,13.35
2022-10-29T20:17:59.832Z,18.20
2022-10-29T20:23:21.231Z,24.02
2022-10-29T20:28:42.419Z,23.58
2022-10-29T20:34:03.414Z,18.30
2022-10-29T20:39:25.534Z,16.58
2022-10-29T20:44:47.858Z,15.82
2022-10-29T20:50:09.164Z,24.88
2022-10-29T20:55:29.682Z,18.10
2022-10-29T21:00:50.557Z,18.58
2022-10-29T21:06:17.008Z,18.92
2022-10-29T21:11:38.006Z,18.02
2022-10-29T21:16:58.592Z,22.05
2022-10-29T21:22:19.238Z,19.20
2022-10-29T21:27:40.296Z,21.30
2022-10-29T21:33:00.839Z,17.80
2022-10-29T21:38:22.673Z,27.83
2022-10-29T21:43:43.803Z,25.00
2022-10-29T21:49:04.600Z,6.10
2022-10-29T21:54:28.389Z,25.98
2022-10-29T21:59:49.422Z,19.13
2022-10-29T22:05:10.032Z,31.50
2022-10-29T22:10:30.654Z,65.53
2022-10-29T22:15:51.219Z,40.17
2022-10-29T22:21:20.436Z,37.13
2022-10-29T22:26:41.021Z,30.45
2022-10-29T22:32:01.592Z,26.10
2022-10-29T22:37:22.469Z,17.08
2022-10-29T22:42:43.309Z,14.85
2022-10-29T22:48:04.296Z,12.63
2022-10-29T22:53:25.146Z,10.70
2022-10-29T22:58:46.409Z,10.48
2022-10-29T23:04:07.057Z,10.00
2022-10-29T23:09:27.834Z,13.85
2022-10-29T23:14:48.533Z,16.63
2022-10-29T23:20:09.484Z,13.77
2022-10-29T23:25:30.494Z,12.80
2022-10-29T23:30:58.222Z,12.02
2022-10-29T23:36:21.774Z,9.23
2022-10-29T23:41:42.328Z,10.43
2022-10-29T23:47:03.192Z,12.85
2022-10-29T23:52:24.110Z,13.27
2022-10-29T23:57:44.663Z,10.88
